Terminal Aerodrome Forecast
Issued by NWS

Home | Current Version | Previous Version | Text Only | Print | Product List | Glossary On
Versions: 1 2 3 4 5 6 7 8 9 10 11 12 13
000
FTUS45 KPIH 281100
TAFSUN
TAF
KSUN 281120Z 2812/2912 32011KT P6SM SKC
     FM281700 14008KT P6SM FEW060
     FM290300 31010KT P6SM SKC
      AMD LTD TO CLD VIS AND WIND TIL 281300=

USA.gov is the U.S. government's official web portal to all federal, state and local government web resources and services.